Time;durP1;ratioP1;P1;durP2;ratioP2;P2;SDS_P1;SDS_P2;PMS_P1;PMS_P2;Temp;Humidity;BMP_temperature;BMP_pressure;BME280_temperature;BME280_humidity;BME280_pressure;Samples;Min_cycle;Max_cycle;Signal;HPM_P1;HPM_P2
2022/12/28 05:01:31;;;;;;;0.63;0.63;;;4.90;99.90;;;;;;5405821;23;20323;-70
2022/12/28 05:03:59;;;;;;;0.50;0.50;;;4.90;99.90;;;;;;4920283;29;20227;-69
2022/12/28 05:06:27;;;;;;;6.47;0.57;;;4.80;99.90;;;;;;4916236;29;20249;-69
2022/12/28 05:08:54;;;;;;;0.40;0.40;;;4.90;99.90;;;;;;4917566;29;20621;-70
2022/12/28 05:11:23;;;;;;;0.35;0.35;;;4.90;99.90;;;;;;4913486;29;20231;-68
2022/12/28 05:13:50;;;;;;;0.70;0.70;;;4.90;99.90;;;;;;4908979;29;20535;-70
2022/12/28 05:16:19;;;;;;;4.90;0.55;;;4.80;99.90;;;;;;4902407;29;20216;-70
2022/12/28 05:18:47;;;;;;;0.50;0.50;;;4.90;99.90;;;;;;4915427;29;20207;-70
2022/12/28 05:21:16;;;;;;;9.57;1.40;;;4.90;99.90;;;;;;4905600;29;20503;-68
2022/12/28 05:23:43;;;;;;;0.40;0.40;;;4.90;99.90;;;;;;4907651;29;20209;-68
2022/12/28 05:26:12;;;;;;;3.03;1.10;;;4.90;99.90;;;;;;4904278;29;20212;-68
2022/12/28 05:28:40;;;;;;;0.30;0.30;;;4.90;99.90;;;;;;4905318;29;20204;-68
2022/12/28 05:31:10;;;;;;;0.43;0.43;;;4.90;99.90;;;;;;4904895;29;20316;-68
2022/12/28 05:33:37;;;;;;;1.85;1.30;;;4.90;99.90;;;;;;4907346;29;20567;-68
2022/12/28 05:36:06;;;;;;;1.67;1.58;;;4.90;99.90;;;;;;4914461;29;20222;-68
2022/12/28 05:38:33;;;;;;;0.50;0.50;;;5.00;99.90;;;;;;4906226;29;20294;-68
2022/12/28 05:41:05;;;;;;;1.40;0.60;;;5.10;99.90;;;;;;4906038;29;20606;-68
2022/12/28 05:43:32;;;;;;;0.45;0.45;;;5.10;99.90;;;;;;4909471;29;20737;-68
2022/12/28 05:46:01;;;;;;;0.60;0.60;;;5.10;99.90;;;;;;4907813;29;20211;-68
2022/12/28 05:48:31;;;;;;;0.47;0.47;;;5.10;99.90;;;;;;4911464;29;20211;-68
2022/12/28 05:51:00;;;;;;;1.83;1.73;;;5.10;99.90;;;;;;4913110;29;20239;-68
2022/12/28 05:53:29;;;;;;;0.65;0.65;;;5.10;99.90;;;;;;4902275;29;20237;-68
2022/12/28 05:56:01;;;;;;;0.70;0.70;;;5.10;99.90;;;;;;4902954;29;20543;-68
2022/12/28 05:58:28;;;;;;;3.10;1.08;;;5.20;99.90;;;;;;4907809;29;20291;-68
2022/12/28 06:01:02;;;;;;;1.20;1.10;;;5.20;99.90;;;;;;4912858;29;20242;-68
2022/12/28 06:03:29;;;;;;;0.73;0.73;;;5.30;99.90;;;;;;4911378;29;20218;-68
2022/12/28 06:05:55;;;;;;;2.15;0.98;;;5.30;99.90;;;;;;4900492;29;20209;-68
2022/12/28 06:08:22;;;;;;;19.83;1.58;;;5.30;99.90;;;;;;4903005;29;20228;-68
2022/12/28 06:10:50;;;;;;;0.40;0.40;;;5.30;99.90;;;;;;4904551;29;20709;-68
2022/12/28 06:13:17;;;;;;;1.45;1.35;;;5.30;99.90;;;;;;4902842;29;20229;-68
2022/12/28 06:15:43;;;;;;;0.50;0.50;;;5.30;99.90;;;;;;4911626;29;20211;-68
2022/12/28 06:18:10;;;;;;;0.95;0.95;;;5.30;99.90;;;;;;4905196;29;20645;-68
2022/12/28 06:20:37;;;;;;;1.20;1.20;;;5.30;99.90;;;;;;4912120;29;20232;-68
2022/12/28 06:23:04;;;;;;;0.75;0.60;;;5.30;99.90;;;;;;4905811;29;20211;-68
2022/12/28 06:25:30;;;;;;;2.05;0.75;;;5.40;99.90;;;;;;4911466;29;20765;-68
2022/12/28 06:27:58;;;;;;;0.98;0.98;;;5.30;99.90;;;;;;4914366;29;20211;-69
2022/12/28 06:30:25;;;;;;;0.82;0.82;;;5.40;99.90;;;;;;4913550;29;20651;-68
2022/12/28 06:32:52;;;;;;;1.63;1.20;;;5.30;99.90;;;;;;4914511;29;20204;-68
2022/12/28 06:35:18;;;;;;;1.52;0.95;;;5.30;99.90;;;;;;4913657;29;20212;-68
2022/12/28 06:37:47;;;;;;;3.60;3.15;;;5.40;99.90;;;;;;4909609;29;20216;-68
2022/12/28 06:40:14;;;;;;;1.08;0.93;;;5.40;99.90;;;;;;4912301;29;20234;-68
2022/12/28 06:42:41;;;;;;;2.42;0.68;;;5.40;99.90;;;;;;4913433;29;20208;-68
2022/12/28 06:45:09;;;;;;;0.40;0.40;;;5.40;99.90;;;;;;4913635;29;20215;-69
2022/12/28 06:47:36;;;;;;;3.72;1.58;;;5.40;99.90;;;;;;4913086;29;20215;-68
2022/12/28 06:50:03;;;;;;;1.02;1.00;;;5.40;99.90;;;;;;4911989;29;20211;-67
2022/12/28 06:52:30;;;;;;;1.58;1.05;;;5.40;99.90;;;;;;4906670;29;20235;-67
2022/12/28 06:54:56;;;;;;;0.60;0.50;;;5.40;99.90;;;;;;4902646;29;20600;-69
2022/12/28 06:57:23;;;;;;;1.30;1.27;;;5.50;99.90;;;;;;4911984;29;20215;-69
2022/12/28 06:59:50;;;;;;;0.90;0.90;;;5.50;99.90;;;;;;4914407;29;20581;-69
2022/12/28 07:02:18;;;;;;;1.15;1.15;;;5.50;99.90;;;;;;4908767;29;20240;-69
2022/12/28 07:04:45;;;;;;;0.60;0.60;;;5.50;99.90;;;;;;4906947;29;20208;-68
2022/12/28 07:07:11;;;;;;;0.85;0.85;;;5.50;99.90;;;;;;4910456;29;20566;-68
2022/12/28 07:09:38;;;;;;;1.40;1.30;;;5.50;99.90;;;;;;4908426;29;20208;-68
2022/12/28 07:12:05;;;;;;;1.10;1.10;;;5.50;99.90;;;;;;4912262;29;20242;-68
2022/12/28 07:14:32;;;;;;;0.77;0.77;;;5.60;99.90;;;;;;4912060;29;20216;-68
2022/12/28 07:16:59;;;;;;;1.15;0.95;;;5.60;99.90;;;;;;4913200;29;20663;-68
2022/12/28 07:19:27;;;;;;;1.50;1.48;;;5.60;99.90;;;;;;4906066;29;20223;-68
2022/12/28 07:21:53;;;;;;;0.75;0.63;;;5.60;99.90;;;;;;4910219;29;20723;-68
2022/12/28 07:24:20;;;;;;;2.05;1.13;;;5.60;99.90;;;;;;4907671;29;20212;-67
2022/12/28 07:26:48;;;;;;;1.25;1.25;;;5.70;99.90;;;;;;4928942;29;20619;-69
2022/12/28 07:29:15;;;;;;;0.85;0.85;;;5.70;99.90;;;;;;4912037;29;20302;-68
2022/12/28 07:31:42;;;;;;;1.33;1.33;;;5.70;99.90;;;;;;4921119;29;20234;-68
2022/12/28 07:34:08;;;;;;;1.60;1.60;;;5.70;99.90;;;;;;4927462;29;20235;-68
2022/12/28 07:36:37;;;;;;;0.30;0.30;;;5.80;99.90;;;;;;4915190;29;20213;-67
2022/12/28 07:39:03;;;;;;;1.05;0.95;;;5.80;99.90;;;;;;4908978;29;20232;-68
2022/12/28 07:41:32;;;;;;;0.75;0.73;;;5.80;99.90;;;;;;4913833;29;20364;-68
2022/12/28 07:43:59;;;;;;;0.43;0.43;;;5.80;99.90;;;;;;4907161;29;20266;-68
2022/12/28 07:46:28;;;;;;;0.88;0.88;;;5.80;99.90;;;;;;4902883;29;20203;-68
2022/12/28 07:48:55;;;;;;;1.10;1.10;;;5.90;99.90;;;;;;4913610;29;20235;-67
2022/12/28 07:51:25;;;;;;;0.75;0.75;;;5.90;99.90;;;;;;4904669;29;20642;-68
2022/12/28 07:53:55;;;;;;;0.50;0.50;;;5.90;99.90;;;;;;4915879;29;20228;-68
2022/12/28 07:56:24;;;;;;;0.50;0.50;;;6.00;99.90;;;;;;4913986;29;20573;-67
2022/12/28 07:58:52;;;;;;;0.68;0.68;;;6.00;99.90;;;;;;4912428;29;20661;-67
2022/12/28 08:01:20;;;;;;;0.68;0.68;;;6.00;99.90;;;;;;4908547;29;20239;-68
2022/12/28 08:03:47;;;;;;;0.68;0.68;;;6.00;99.90;;;;;;4913623;29;20822;-68
2022/12/28 08:06:17;;;;;;;1.45;1.45;;;6.10;99.90;;;;;;4913776;29;20212;-68
2022/12/28 08:08:46;;;;;;;0.98;0.98;;;6.20;99.90;;;;;;4913621;29;20623;-68
2022/12/28 08:11:15;;;;;;;0.47;0.20;;;6.20;99.90;;;;;;4915588;29;20235;-69
2022/12/28 08:13:46;;;;;;;0.63;0.63;;;6.20;99.90;;;;;;4911958;29;20213;-68
2022/12/28 08:16:14;;;;;;;0.20;0.20;;;6.20;99.90;;;;;;4912470;29;20685;-69
2022/12/28 08:18:42;;;;;;;0.40;0.40;;;6.20;99.90;;;;;;4907317;29;20559;-69
2022/12/28 08:21:12;;;;;;;0.52;0.52;;;6.20;99.90;;;;;;4905470;29;20232;-68
2022/12/28 08:23:39;;;;;;;0.73;0.73;;;6.20;99.90;;;;;;4904099;29;20216;-68
2022/12/28 08:26:07;;;;;;;0.77;0.77;;;6.20;99.90;;;;;;4915018;29;20235;-70
2022/12/28 08:28:37;;;;;;;0.20;0.20;;;6.20;99.90;;;;;;4916632;29;20212;-67
2022/12/28 08:31:08;;;;;;;0.45;0.45;;;6.20;99.90;;;;;;4913030;29;20236;-71
2022/12/28 08:33:35;;;;;;;0.98;0.88;;;6.30;99.90;;;;;;4915139;29;20216;-69
2022/12/28 08:36:02;;;;;;;0.40;0.40;;;6.30;99.90;;;;;;4914816;29;20268;-69
2022/12/28 08:38:29;;;;;;;1.20;1.20;;;6.30;99.90;;;;;;4915376;29;20216;-70
2022/12/28 08:40:56;;;;;;;0.75;0.75;;;6.30;99.90;;;;;;4914363;29;20248;-70
2022/12/28 08:43:23;;;;;;;0.63;0.63;;;6.40;99.90;;;;;;4914907;29;20264;-69
2022/12/28 08:45:58;;;;;;;0.50;0.50;;;6.40;99.90;;;;;;4910667;29;20231;-70
2022/12/28 08:48:25;;;;;;;0.65;0.65;;;6.50;99.90;;;;;;4905270;29;20269;-70
2022/12/28 08:50:52;;;;;;;0.60;0.60;;;6.50;99.90;;;;;;4915487;29;20239;-69
2022/12/28 08:53:20;;;;;;;0.85;0.85;;;6.50;99.90;;;;;;4912617;29;20208;-69
2022/12/28 08:55:47;;;;;;;1.75;1.00;;;6.60;99.90;;;;;;4903648;29;20525;-69
2022/12/28 08:58:14;;;;;;;0.73;0.73;;;6.60;99.90;;;;;;4909622;29;20216;-69
2022/12/28 09:00:41;;;;;;;1.85;1.77;;;6.60;99.90;;;;;;4907765;29;20227;-69
2022/12/28 09:03:09;;;;;;;1.25;1.25;;;6.70;99.90;;;;;;4910752;29;20208;-70
2022/12/28 09:05:37;;;;;;;5.35;1.05;;;6.70;99.90;;;;;;4913867;29;20209;-70
2022/12/28 09:08:03;;;;;;;1.20;1.20;;;6.70;99.90;;;;;;4911378;29;20216;-69
2022/12/28 09:10:30;;;;;;;1.20;1.20;;;6.80;99.90;;;;;;4908886;29;20213;-71
2022/12/28 09:12:57;;;;;;;0.30;0.30;;;6.80;99.90;;;;;;4909256;29;20727;-69
2022/12/28 09:15:24;;;;;;;0.98;0.98;;;6.80;99.90;;;;;;4914315;29;20205;-70
2022/12/28 09:17:51;;;;;;;1.35;1.20;;;6.90;99.90;;;;;;4914053;29;20208;-71
2022/12/28 09:20:19;;;;;;;0.90;0.90;;;6.90;99.90;;;;;;4911435;29;21912;-69
2022/12/28 09:22:45;;;;;;;1.13;1.13;;;7.00;99.90;;;;;;4901344;29;20206;-69
2022/12/28 09:25:12;;;;;;;0.70;0.70;;;7.10;99.90;;;;;;4912356;29;20216;-69
2022/12/28 09:27:39;;;;;;;1.50;1.50;;;7.10;99.90;;;;;;4909646;29;20216;-71
2022/12/28 09:30:07;;;;;;;1.50;1.50;;;7.20;99.90;;;;;;4915160;29;20208;-70
2022/12/28 09:32:34;;;;;;;1.05;1.00;;;7.20;99.90;;;;;;4909733;29;20254;-68
2022/12/28 09:35:00;;;;;;;1.35;1.35;;;7.20;99.90;;;;;;4909062;29;20212;-69
2022/12/28 09:37:28;;;;;;;1.98;1.98;;;7.30;99.90;;;;;;4903048;29;20205;-71
2022/12/28 09:39:55;;;;;;;1.38;1.38;;;7.30;99.90;;;;;;4912030;29;20829;-68
2022/12/28 09:42:27;;;;;;;1.40;0.70;;;7.40;99.90;;;;;;4907143;29;20225;-69
2022/12/28 09:45:00;;;;;;;2.95;2.08;;;7.40;99.90;;;;;;4913783;29;20803;-70
2022/12/28 09:47:34;;;;;;;1.42;1.13;;;7.50;99.90;;;;;;4908215;29;20214;-70
2022/12/28 09:50:12;;;;;;;2.95;1.70;;;7.50;99.90;;;;;;4905695;29;20635;-70
2022/12/28 09:52:49;;;;;;;0.50;0.50;;;7.50;99.90;;;;;;4907377;29;20229;-69
2022/12/28 09:55:17;;;;;;;1.02;1.02;;;7.60;99.90;;;;;;4909622;29;20217;-69
2022/12/28 09:57:48;;;;;;;2.80;2.00;;;7.60;99.90;;;;;;4910654;29;20251;-70
2022/12/28 10:00:18;;;;;;;0.60;0.60;;;7.60;99.90;;;;;;4908712;29;20213;-70
2022/12/28 10:02:50;;;;;;;0.55;0.55;;;7.70;99.90;;;;;;4908377;29;20306;-71
2022/12/28 10:05:19;;;;;;;3.38;3.08;;;7.70;99.90;;;;;;4899523;29;20599;-71
2022/12/28 10:07:47;;;;;;;3.10;2.75;;;7.70;99.90;;;;;;4903850;29;20208;-71
2022/12/28 10:10:17;;;;;;;3.85;3.65;;;7.80;99.90;;;;;;4905029;29;20228;-70
2022/12/28 10:12:45;;;;;;;3.13;1.90;;;7.80;99.90;;;;;;4909491;29;20248;-71
2022/12/28 10:15:12;;;;;;;2.40;1.40;;;7.80;99.90;;;;;;4912390;29;20211;-71
2022/12/28 10:17:40;;;;;;;1.60;1.60;;;7.80;99.90;;;;;;4906445;29;20260;-70
2022/12/28 10:20:13;;;;;;;0.80;0.80;;;7.90;99.90;;;;;;4912074;29;20224;-70
2022/12/28 10:22:42;;;;;;;1.65;1.55;;;7.90;99.90;;;;;;4904436;29;20211;-71
2022/12/28 10:25:17;;;;;;;1.55;1.42;;;8.00;99.90;;;;;;4906294;29;20275;-70
2022/12/28 10:27:44;;;;;;;1.15;1.15;;;8.00;99.90;;;;;;4903378;29;20235;-70
2022/12/28 10:30:16;;;;;;;1.08;1.08;;;8.00;99.90;;;;;;4902093;29;20538;-71
2022/12/28 10:32:51;;;;;;;1.25;1.10;;;8.10;99.90;;;;;;4902950;29;20242;-69
2022/12/28 10:35:29;;;;;;;1.00;0.90;;;8.10;99.90;;;;;;4913225;29;20227;-70
2022/12/28 10:38:02;;;;;;;0.80;0.80;;;8.00;99.90;;;;;;4901250;29;20213;-69
2022/12/28 10:40:33;;;;;;;0.60;0.60;;;8.10;99.90;;;;;;4910278;29;20217;-70
2022/12/28 10:42:59;;;;;;;1.40;1.40;;;8.10;99.90;;;;;;4907058;29;20216;-69
2022/12/28 10:45:34;;;;;;;1.23;1.23;;;8.20;99.90;;;;;;4905883;29;20291;-69
2022/12/28 10:48:02;;;;;;;1.02;1.02;;;8.20;99.90;;;;;;4913242;29;20210;-71
2022/12/28 10:50:40;;;;;;;1.33;1.33;;;8.20;99.90;;;;;;4906129;29;20224;-71
2022/12/28 10:53:17;;;;;;;1.52;1.45;;;8.20;99.90;;;;;;4907325;29;20233;-70
2022/12/28 10:55:45;;;;;;;0.98;0.98;;;8.30;99.90;;;;;;4904726;29;20232;-69
2022/12/28 10:58:19;;;;;;;1.13;0.95;;;8.20;99.90;;;;;;4912087;29;20269;-69
2022/12/28 11:00:54;;;;;;;2.70;2.50;;;8.30;99.90;;;;;;4912466;29;20237;-69
2022/12/28 11:03:25;;;;;;;1.90;1.90;;;8.30;99.90;;;;;;4903669;29;20213;-67
2022/12/28 11:06:12;;;;;;;1.00;1.00;;;8.40;99.90;;;;;;4911091;29;20215;-69
2022/12/28 11:08:39;;;;;;;0.63;0.63;;;8.40;99.90;;;;;;4905322;29;20226;-70
2022/12/28 11:11:16;;;;;;;0.60;0.60;;;8.40;99.90;;;;;;4908030;29;20577;-69
2022/12/28 11:13:45;;;;;;;2.38;2.28;;;8.50;99.90;;;;;;4905866;29;20240;-69
2022/12/28 11:16:14;;;;;;;2.03;1.92;;;8.50;99.90;;;;;;4910277;29;20215;-70
2022/12/28 11:18:41;;;;;;;1.50;1.45;;;8.50;99.90;;;;;;4904264;29;20209;-69
2022/12/28 11:21:11;;;;;;;1.38;1.33;;;8.50;99.90;;;;;;4903940;29;20259;-67
2022/12/28 11:23:38;;;;;;;0.77;0.77;;;8.50;99.90;;;;;;4911548;29;20213;-71
2022/12/28 11:26:09;;;;;;;1.30;1.20;;;8.50;99.90;;;;;;4904896;29;20229;-70
2022/12/28 11:28:39;;;;;;;1.33;1.33;;;8.60;99.90;;;;;;4906580;29;20233;-70
2022/12/28 11:31:08;;;;;;;1.40;1.40;;;8.60;99.90;;;;;;4928425;23;20583;-64
2022/12/28 11:33:40;;;;;;;1.60;1.60;;;8.60;99.90;;;;;;4909928;29;20230;-65
2022/12/28 11:36:14;;;;;;;0.70;0.70;;;8.60;99.90;;;;;;4912154;29;20213;-64
2022/12/28 11:38:43;;;;;;;2.10;2.00;;;8.60;99.90;;;;;;4912869;29;20235;-65
2022/12/28 11:41:11;;;;;;;1.42;1.40;;;8.60;99.90;;;;;;4905804;29;20240;-64
2022/12/28 11:43:50;;;;;;;0.90;0.90;;;8.70;99.90;;;;;;4894035;29;20223;-65
2022/12/28 11:46:37;;;;;;;0.95;0.95;;;8.60;99.90;;;;;;4897868;29;20219;-66
2022/12/28 11:49:04;;;;;;;13.50;5.55;;;8.70;99.90;;;;;;4895618;29;20217;-64
2022/12/28 11:51:32;;;;;;;2.40;2.20;;;8.70;99.90;;;;;;4892932;29;20231;-64
2022/12/28 11:54:00;;;;;;;4.85;2.08;;;8.70;99.90;;;;;;4881523;29;20283;-65
2022/12/28 11:56:48;;;;;;;1.67;1.67;;;8.70;99.90;;;;;;4897028;29;20349;-65
2022/12/28 11:59:26;;;;;;;2.72;1.00;;;8.70;99.90;;;;;;4897207;29;20209;-65
2022/12/28 12:01:57;;;;;;;1.00;1.00;;;8.70;99.90;;;;;;4890669;29;20246;-65
2022/12/28 12:04:30;;;;;;;1.25;1.20;;;8.70;99.90;;;;;;4895611;29;20562;-65
2022/12/28 12:07:19;;;;;;;0.82;0.82;;;8.70;99.90;;;;;;4882330;29;20227;-65
2022/12/28 12:09:48;;;;;;;1.45;1.35;;;8.70;99.90;;;;;;4888503;29;20219;-65
2022/12/28 12:12:47;;;;;;;2.75;2.53;;;8.70;99.90;;;;;;4888890;29;20265;-65
2022/12/28 12:15:18;;;;;;;1.83;1.73;;;8.80;99.90;;;;;;4897272;29;20225;-65
2022/12/28 12:17:48;;;;;;;1.20;1.20;;;8.80;99.90;;;;;;4896846;29;20258;-65
2022/12/28 12:20:26;;;;;;;5.43;2.92;;;8.80;99.90;;;;;;4896337;29;20221;-65
2022/12/28 12:22:59;;;;;;;2.75;2.55;;;8.80;99.90;;;;;;4897313;29;20237;-65
2022/12/28 12:25:34;;;;;;;2.60;2.40;;;8.80;99.90;;;;;;4895571;29;22007;-65
2022/12/28 12:28:06;;;;;;;0.93;0.93;;;8.80;99.90;;;;;;4896849;29;20208;-65
2022/12/28 12:30:36;;;;;;;1.75;1.20;;;8.80;99.90;;;;;;4890619;29;20223;-65
2022/12/28 12:33:05;;;;;;;2.13;2.03;;;8.80;99.90;;;;;;4887226;29;20243;-65
2022/12/28 12:35:44;;;;;;;0.88;0.88;;;8.80;99.90;;;;;;4896666;29;20208;-65
2022/12/28 12:38:24;;;;;;;0.73;0.73;;;8.80;99.90;;;;;;4880058;29;20222;-65
2022/12/28 12:41:02;;;;;;;1.05;1.05;;;8.80;99.90;;;;;;4890825;29;20256;-65
2022/12/28 12:43:36;;;;;;;2.03;1.27;;;8.80;99.90;;;;;;4889365;29;20205;-65
2022/12/28 12:46:37;;;;;;;1.33;1.27;;;8.80;99.90;;;;;;4896746;29;20229;-64
2022/12/28 12:49:25;;;;;;;2.55;1.20;;;8.90;99.90;;;;;;4881419;29;20220;-65
2022/12/28 12:52:00;;;;;;;1.42;1.35;;;8.90;99.90;;;;;;4885709;29;20252;-65
2022/12/28 12:54:41;;;;;;;1.50;1.50;;;8.90;99.90;;;;;;4887500;29;20603;-65
2022/12/28 12:57:15;;;;;;;2.40;2.20;;;8.90;99.90;;;;;;4893278;29;20698;-65
2022/12/28 13:00:03;;;;;;;1.20;1.00;;;8.90;99.90;;;;;;4882815;29;20301;-65
2022/12/28 13:02:56;;;;;;;1.55;1.50;;;8.90;99.90;;;;;;4892402;29;20998;-65
2022/12/28 13:05:26;;;;;;;2.55;1.17;;;8.90;99.90;;;;;;4896982;29;20844;-65
2022/12/28 13:07:55;;;;;;;2.28;1.85;;;9.00;99.90;;;;;;4896517;29;20317;-64
2022/12/28 13:10:26;;;;;;;2.65;2.08;;;9.00;99.90;;;;;;4898684;29;20333;-65
2022/12/28 13:12:56;;;;;;;0.90;0.88;;;9.00;99.90;;;;;;4896371;29;20239;-64
2022/12/28 13:15:23;;;;;;;1.38;1.27;;;9.00;99.90;;;;;;4886146;29;20222;-64
2022/12/28 13:18:03;;;;;;;1.52;1.42;;;9.00;99.90;;;;;;4893068;29;20304;-64
2022/12/28 13:20:31;;;;;;;1.50;1.42;;;9.00;99.90;;;;;;4878495;29;20215;-65
2022/12/28 13:22:57;;;;;;;1.15;1.15;;;9.00;99.90;;;;;;4892934;29;20226;-64
2022/12/28 13:25:26;;;;;;;2.40;2.28;;;9.00;99.90;;;;;;4886869;29;20574;-65
2022/12/28 13:27:53;;;;;;;2.72;2.65;;;9.00;99.90;;;;;;4880110;29;20217;-65
2022/12/28 13:30:22;;;;;;;1.00;1.00;;;9.00;99.90;;;;;;4889523;29;20214;-65
2022/12/28 13:32:51;;;;;;;0.95;0.93;;;9.00;99.90;;;;;;4892141;29;20316;-65
2022/12/28 13:35:21;;;;;;;2.95;2.75;;;9.00;99.90;;;;;;4895519;29;20214;-66
2022/12/28 13:38:02;;;;;;;1.38;1.33;;;9.00;99.90;;;;;;4888999;29;20222;-65
2022/12/28 13:40:30;;;;;;;2.20;2.10;;;9.00;99.90;;;;;;4891813;29;20212;-66
2022/12/28 13:43:17;;;;;;;2.70;2.50;;;9.00;99.90;;;;;;4892611;29;20550;-66
2022/12/28 13:45:44;;;;;;;1.45;1.45;;;9.00;99.90;;;;;;4885861;29;20220;-66
2022/12/28 13:48:11;;;;;;;2.00;1.90;;;9.00;99.90;;;;;;4888636;29;20214;-66
2022/12/28 13:50:40;;;;;;;1.10;1.10;;;9.00;99.90;;;;;;4894412;29;20213;-66
2022/12/28 13:53:11;;;;;;;2.65;1.60;;;9.00;99.90;;;;;;4891146;29;20241;-66
2022/12/28 13:55:41;;;;;;;4.75;1.98;;;9.00;99.90;;;;;;4890142;29;20211;-66
2022/12/28 13:58:12;;;;;;;1.25;1.15;;;9.00;99.90;;;;;;4891257;29;20220;-66
2022/12/28 14:00:43;;;;;;;1.95;1.85;;;9.00;99.90;;;;;;4894369;29;20217;-66
2022/12/28 14:03:12;;;;;;;0.70;0.63;;;9.00;99.90;;;;;;4894494;29;20209;-65
2022/12/28 14:05:43;;;;;;;1.10;1.10;;;9.00;99.90;;;;;;4893680;29;20206;-65
2022/12/28 14:08:10;;;;;;;0.88;0.88;;;9.00;99.90;;;;;;4881456;29;20211;-65
2022/12/28 14:10:37;;;;;;;1.50;1.50;;;9.00;99.90;;;;;;4895228;29;20212;-66
2022/12/28 14:13:04;;;;;;;1.50;1.40;;;8.90;99.90;;;;;;4888578;29;20258;-66
2022/12/28 14:15:32;;;;;;;1.50;1.27;;;8.90;99.90;;;;;;4888540;29;20589;-65
2022/12/28 14:17:58;;;;;;;2.15;2.10;;;8.90;99.90;;;;;;4888845;29;20217;-65
2022/12/28 14:20:25;;;;;;;0.60;0.60;;;8.90;99.90;;;;;;4893363;29;20208;-66
2022/12/28 14:22:53;;;;;;;2.13;1.20;;;8.80;99.90;;;;;;4886189;29;20282;-66
2022/12/28 14:25:22;;;;;;;1.27;1.27;;;8.80;99.90;;;;;;4889850;29;20208;-66
2022/12/28 14:27:56;;;;;;;0.70;0.45;;;8.80;99.90;;;;;;4895631;29;20206;-66
2022/12/28 14:30:26;;;;;;;1.00;1.00;;;8.80;99.90;;;;;;4894037;29;20217;-66
2022/12/28 14:32:54;;;;;;;1.10;1.10;;;8.80;99.90;;;;;;4880755;29;20235;-66
2022/12/28 14:35:23;;;;;;;1.65;1.55;;;8.80;99.90;;;;;;4884784;29;20753;-65
2022/12/28 14:37:54;;;;;;;2.42;1.27;;;8.70;99.90;;;;;;4887233;29;20226;-66
2022/12/28 14:40:28;;;;;;;0.65;0.65;;;8.70;99.90;;;;;;4892211;29;20208;-65
2022/12/28 14:42:56;;;;;;;1.40;1.30;;;8.70;99.90;;;;;;4884901;29;20219;-65
2022/12/28 14:45:35;;;;;;;1.02;1.02;;;8.70;99.90;;;;;;4889322;29;20215;-65
2022/12/28 14:48:03;;;;;;;3.65;2.75;;;8.70;99.90;;;;;;4884415;29;20213;-65
2022/12/28 14:50:31;;;;;;;2.00;1.60;;;8.70;99.90;;;;;;4893318;29;20302;-65
2022/12/28 14:53:08;;;;;;;5.60;3.83;;;8.70;99.90;;;;;;4880690;29;20224;-65
2022/12/28 14:55:40;;;;;;;2.33;2.22;;;8.70;99.90;;;;;;4892930;29;20336;-65
2022/12/28 14:58:17;;;;;;;0.85;0.85;;;8.70;99.90;;;;;;4887722;29;20582;-65
2022/12/28 15:00:56;;;;;;;1.05;1.05;;;8.70;99.90;;;;;;4893248;29;20225;-66
2022/12/28 15:03:24;;;;;;;7.55;3.13;;;8.70;99.90;;;;;;4889132;29;20214;-66
2022/12/28 15:05:51;;;;;;;5.85;3.90;;;8.70;99.90;;;;;;4890525;29;20214;-65
2022/12/28 15:08:21;;;;;;;12.80;4.03;;;8.70;99.90;;;;;;4880184;29;20218;-65
2022/12/28 15:10:50;;;;;;;2.00;1.90;;;8.70;99.90;;;;;;4892397;29;20342;-64
2022/12/28 15:13:19;;;;;;;2.72;2.63;;;8.70;99.90;;;;;;4895832;29;20690;-65
2022/12/28 15:15:53;;;;;;;2.55;2.17;;;8.70;99.90;;;;;;4884966;29;20228;-65
2022/12/28 15:18:20;;;;;;;3.40;2.38;;;8.70;99.90;;;;;;4888340;29;20257;-66
2022/12/28 15:20:47;;;;;;;3.92;3.60;;;8.60;99.90;;;;;;4891250;29;20211;-65
2022/12/28 15:23:14;;;;;;;1.95;1.85;;;8.60;99.90;;;;;;4887118;29;20218;-66
2022/12/28 15:25:42;;;;;;;2.25;2.15;;;8.60;99.90;;;;;;4889862;29;20211;-65
2022/12/28 15:28:09;;;;;;;1.00;1.00;;;8.60;99.90;;;;;;4892365;29;20210;-66
2022/12/28 15:30:39;;;;;;;5.78;4.13;;;8.60;99.90;;;;;;4898395;29;20223;-67
2022/12/28 15:33:06;;;;;;;2.53;2.42;;;8.60;99.90;;;;;;4897554;29;20242;-65
2022/12/28 15:35:33;;;;;;;1.42;1.42;;;8.60;99.90;;;;;;4897287;29;20206;-64
2022/12/28 15:37:59;;;;;;;0.80;0.80;;;8.70;99.90;;;;;;4891683;29;20245;-65
2022/12/28 15:40:26;;;;;;;1.35;1.25;;;8.70;99.90;;;;;;4890905;29;20209;-65
2022/12/28 15:42:54;;;;;;;1.42;1.42;;;8.70;99.90;;;;;;4897836;29;20261;-65
2022/12/28 15:45:21;;;;;;;0.82;0.82;;;8.70;99.90;;;;;;4898549;29;20232;-65
2022/12/28 15:47:47;;;;;;;1.42;1.33;;;8.70;99.90;;;;;;4898551;29;20214;-66
2022/12/28 15:50:14;;;;;;;0.80;0.80;;;8.70;99.90;;;;;;4890666;29;20301;-65
2022/12/28 15:52:41;;;;;;;2.55;2.35;;;8.70;99.90;;;;;;4896032;29;20256;-64
2022/12/28 15:55:08;;;;;;;1.63;1.63;;;8.60;99.90;;;;;;4882034;29;20240;-65
2022/12/28 15:57:35;;;;;;;4.25;4.00;;;8.60;99.90;;;;;;4897585;29;20223;-65
2022/12/28 16:00:05;;;;;;;1.92;1.83;;;8.60;99.90;;;;;;4897841;29;20526;-65
2022/12/28 16:02:31;;;;;;;3.78;3.47;;;8.60;99.90;;;;;;4895990;29;20253;-65
2022/12/28 16:04:58;;;;;;;9.93;5.30;;;8.60;99.90;;;;;;4897004;29;20210;-66
2022/12/28 16:07:25;;;;;;;3.78;3.53;;;8.60;99.90;;;;;;4894662;29;20210;-66
2022/12/28 16:09:51;;;;;;;2.33;2.22;;;8.60;99.90;;;;;;4897995;29;20230;-65
2022/12/28 16:12:18;;;;;;;4.85;4.53;;;8.60;99.90;;;;;;4889106;29;20235;-66
2022/12/28 16:14:46;;;;;;;5.60;4.72;;;8.60;99.90;;;;;;4896004;29;20301;-66
2022/12/28 16:17:14;;;;;;;4.85;4.50;;;8.60;99.90;;;;;;4885025;29;20279;-66
2022/12/28 16:19:41;;;;;;;4.38;4.00;;;8.60;99.90;;;;;;4883717;29;20697;-66
2022/12/28 16:22:08;;;;;;;5.15;3.35;;;8.60;99.90;;;;;;4892343;29;20234;-65
2022/12/28 16:24:35;;;;;;;1.85;1.85;;;8.60;99.90;;;;;;4889722;29;20214;-66
2022/12/28 16:27:02;;;;;;;3.55;3.05;;;8.60;99.90;;;;;;4884522;29;20221;-65
2022/12/28 16:29:29;;;;;;;3.72;3.60;;;8.60;99.90;;;;;;4879437;29;20216;-65
2022/12/28 16:31:58;;;;;;;4.68;2.63;;;8.60;99.90;;;;;;4893414;29;20252;-65
2022/12/28 16:34:27;;;;;;;2.95;2.75;;;8.60;99.90;;;;;;4894378;29;20238;-65
2022/12/28 16:36:56;;;;;;;2.75;2.55;;;8.60;99.90;;;;;;4891529;29;20846;-65
2022/12/28 16:39:23;;;;;;;2.53;2.33;;;8.60;99.90;;;;;;4889199;29;20210;-65
2022/12/28 16:41:50;;;;;;;2.53;2.35;;;8.60;99.90;;;;;;4895465;29;20237;-66
2022/12/28 16:44:20;;;;;;;1.50;1.50;;;8.60;99.90;;;;;;4897031;29;20206;-65
2022/12/28 16:46:48;;;;;;;1.92;1.83;;;8.60;99.90;;;;;;4896423;29;20209;-65
2022/12/28 16:49:14;;;;;;;1.40;1.40;;;8.60;99.90;;;;;;4893436;29;20701;-66
2022/12/28 16:51:45;;;;;;;1.23;1.23;;;8.60;99.90;;;;;;4884671;29;20239;-65
2022/12/28 16:54:15;;;;;;;4.85;3.30;;;8.60;99.90;;;;;;4892116;29;20234;-65
2022/12/28 16:56:42;;;;;;;12.30;4.57;;;8.50;99.90;;;;;;4886823;29;20314;-65
2022/12/28 16:59:13;;;;;;;7.63;4.93;;;8.60;99.90;;;;;;4890826;29;20210;-66
2022/12/28 17:01:40;;;;;;;1.48;1.45;;;8.60;99.90;;;;;;4897558;29;20232;-65
2022/12/28 17:04:07;;;;;;;3.10;2.90;;;8.50;99.90;;;;;;4896103;29;20807;-65
2022/12/28 17:06:34;;;;;;;1.25;1.10;;;8.50;99.90;;;;;;4896066;29;20697;-65
2022/12/28 17:09:03;;;;;;;1.50;1.50;;;8.50;99.90;;;;;;4885293;29;20599;-66
2022/12/28 17:11:30;;;;;;;4.20;3.92;;;8.50;99.90;;;;;;4887992;29;20302;-66
2022/12/28 17:14:00;;;;;;;3.35;3.05;;;8.40;99.90;;;;;;4893532;29;20230;-65
2022/12/28 17:16:27;;;;;;;2.00;1.90;;;8.40;99.90;;;;;;4896726;29;20747;-66
2022/12/28 17:18:53;;;;;;;7.20;6.47;;;8.40;99.90;;;;;;4884327;29;20581;-65
2022/12/28 17:21:20;;;;;;;3.13;2.92;;;8.40;99.90;;;;;;4893739;29;20240;-65
2022/12/28 17:23:47;;;;;;;1.13;1.13;;;8.40;99.90;;;;;;4891086;29;20205;-66
2022/12/28 17:26:15;;;;;;;3.47;3.17;;;8.40;99.90;;;;;;4879221;29;20210;-66
2022/12/28 17:28:42;;;;;;;2.70;2.47;;;8.30;99.90;;;;;;4896201;29;20221;-65
2022/12/28 17:31:12;;;;;;;3.25;3.13;;;8.30;99.90;;;;;;4888903;29;20594;-65
2022/12/28 17:33:43;;;;;;;7.13;3.55;;;8.30;99.90;;;;;;4888709;29;20251;-66
2022/12/28 17:36:10;;;;;;;1.65;1.65;;;8.30;99.90;;;;;;4925962;23;20240;-68
2022/12/28 17:38:36;;;;;;;2.47;2.28;;;8.30;99.90;;;;;;4912908;29;20216;-67
2022/12/28 17:41:07;;;;;;;3.90;2.85;;;8.30;99.90;;;;;;4905826;29;20238;-66
2022/12/28 17:43:35;;;;;;;2.80;2.60;;;8.30;99.90;;;;;;4906490;29;20227;-69
2022/12/28 17:46:02;;;;;;;3.90;2.83;;;8.20;99.90;;;;;;4907919;29;20271;-69
2022/12/28 17:48:29;;;;;;;2.17;2.08;;;8.20;99.90;;;;;;4902494;29;20214;-69
2022/12/28 17:50:57;;;;;;;3.90;3.10;;;8.30;99.90;;;;;;4897313;29;20242;-68
2022/12/28 17:53:24;;;;;;;3.03;2.83;;;8.20;99.90;;;;;;4892862;29;20302;-68
2022/12/28 17:55:51;;;;;;;7.10;3.03;;;8.20;99.90;;;;;;4905693;29;20241;-68
2022/12/28 17:58:17;;;;;;;3.58;3.28;;;8.20;99.90;;;;;;4907831;29;20215;-68
2022/12/28 18:00:45;;;;;;;2.45;2.35;;;8.20;99.90;;;;;;4906852;29;20220;-66
2022/12/28 18:03:12;;;;;;;1.83;1.70;;;8.20;99.90;;;;;;4910976;29;20229;-66
2022/12/28 18:05:39;;;;;;;2.58;2.42;;;8.20;99.90;;;;;;4903326;29;20236;-66
2022/12/28 18:08:05;;;;;;;2.38;1.70;;;8.20;99.90;;;;;;4907077;29;20214;-67
2022/12/28 18:10:32;;;;;;;2.80;2.22;;;8.10;99.90;;;;;;4894147;29;20218;-67